Calgary International Airport
CYYC : now visible

Airfield :











YOU CAN JOIN US ON...

 
LOGIN :

Register | Disclaimer

   EN    FR    IT 

 









Legend :    VFR   Marginal VFR   IFR   Intensive IFR   Very Intensive IFR
Visi :
Ceiling :
>= 8 km
>= 3000ft
5 to 8 km
1000 to 3000 ft
1500m to 5 km
500 to 1000 ft
800 to 1500m
200 to 500 ft
< 800m
< 200 ft
Symbols :   Thunderstorms  Fog  Heavy snow  Heavy precipitations  Wind > 20 kt







- Airport Elevation : 3557 ft
- IATA code : YYC


CYYC - Calgary International

CURRENT METAR :
  • 201000Z 24003KT 7SM -SN SCT050 BKN077 M06/M08 A2960 RMK SC3AC2 SLP077

EXPIRED METARs :
  • 200917Z 24003KT 210V300 2 1/2SM -SN BKN017 OVC053 M06/M08 A2959 RMK SN2SC4SC2 VIS VRB 13/4-4 SLP074
  • 200907Z 29003KT 3/4SM R35L/P6000FT/N R11/P6000FT/D R35R/P6000FT/D -SN OVC014 M05/M08 A2959 RMK SN5SC3 SLP074
  • 200800Z VRB02KT 7SM -SN BKN027 BKN050 M05/M08 A2959 RMK SC5SC2 SLP074

TAF AMD TAF CYYC
Valid from the 20 at 09:00 until the 21 at 06:00 UTC


200926Z 2009/2106 32005KT 6SM -SN SCT020 BKN040
TEMPO 2009/2017 2SM -SHSN BKN020 OVC040
BECMG 2015/2017 35015G25KT
FM201700 34015G25KT P6SM -SN SCT020 OVC040
TEMPO 2017/2104 2SM -SHSN VV012
BECMG 2021/2023 36020G30KT
FM210400 35015G25KT P6SM -SN BKN020 OVC050 RMK NXT FCST BY 201200Z
CZEG FIR / North America



MET'MAP, your aeronautical weather chart ! - Copyright ORBIFLY December 2007 - Disclaimer

ORBIFLY MET'MAP TEAM :

Programming & Development : Alexandra Zaïnal
Concept & Development : Baudouin d'Aumeries
Co-Development & Prog : Marc-Olivier Méhu
Technical & hardware support : Manuel Goepfert

Contact : metmap@orbifly.com




SOURCES & CREDITS :

   NOAA       Earth
Advisory